KISO

Kinston Regional Jetport at Stallings Field Airport

Kinston, North Carolina, USA
KISO 232348Z 2400/2424 VRB03KT P6SM SCT250 FM240800 34005KT P6SM SKC FM241300 01007G15KT P6SM SKC FM241700 36006KT P6SM SKC AMD LTD TO CLD VIS AND WIND
Issued Valid From Valid To
Oct-23 @ 23:48 UTC
(6 hours ago)
Oct-24 @ 00:00 UTC
(5 hours ago)
Oct-25 @ 00:00 UTC
(in 19 hours)
Oct-24 @ 00:00 to Oct-24 @ 08:00
KISO 232348Z 2400/2424 VRB03KT P6SM SCT250
Wind Visibility Clouds
Variable at 3 knots Greater than 6 miles
  • Scattered at 25,000' AGL
From Oct-24 @ 08:00 to Oct-24 @ 13:00
FM240800 34005KT P6SM SKC
Wind Visibility Clouds
340° at 5 knots Greater than 6 miles
  • Clear skies
From Oct-24 @ 13:00 to Oct-24 @ 17:00
FM241300 01007G15KT P6SM SKC
Wind Visibility Clouds
10° at 7 knots
 Gusting to 15 knots
Greater than 6 miles
  • Clear skies
From Oct-24 @ 17:00 to Oct-25 @ 00:00
FM241700 36006KT P6SM SKC AMD LTD TO CLD VIS AND WIND
Wind Visibility Clouds
360° at 6 knots Greater than 6 miles
  • Clear skies
KISO 232348Z 2400/2424 VRB03KT P6SM SCT250 FM240800 34005KT P6SM SKC FM241300 01007G15KT P6SM SKC FM241700 36006KT P6SM SKC AMD LTD TO CLD VIS AND WIND
Issued Oct-23 @ 23:48 UTC
(6 hours ago)
Valid From Oct-24 @ 00:00 UTC
(5 hours ago)
Valid To Oct-25 @ 00:00 UTC
(in 19 hours)
Oct-24 @ 00:00 - Oct-24 @ 08:00
Wind Visibility
Variable at 3 knots Greater than 6 miles
Clouds
  • Scattered at 25,000' AGL
From Oct-24 @ 08:00 - Oct-24 @ 13:00
Wind Visibility
340° at 5 knots Greater than 6 miles
Clouds
  • Clear skies
From Oct-24 @ 13:00 - Oct-24 @ 17:00
Wind Visibility
10° at 7 knots
 Gusting to 15 knots
Greater than 6 miles
Clouds
  • Clear skies
From Oct-24 @ 17:00 - Oct-25 @ 00:00
Wind Visibility
360° at 6 knots Greater than 6 miles
Clouds
  • Clear skies